Time;durP1;ratioP1;P1;durP2;ratioP2;P2;SDS_P1;SDS_P2;PMS_P1;PMS_P2;Temp;Humidity;BMP_temperature;BMP_pressure;BME280_temperature;BME280_humidity;BME280_pressure;Samples;Min_cycle;Max_cycle;Signal;HPM_P1;HPM_P2
2022/02/24 00:01:42;;;;;;;;;;;2.70;99.90;;;;;;4176629;28;19931;-50
2022/02/24 00:03:44;;;;;;;;;;;2.40;99.90;;;;;;4178791;28;19933;-49
2022/02/24 00:05:45;;;;;;;;;;;2.30;99.90;;;;;;4177786;28;19928;-51
2022/02/24 00:07:47;;;;;;;;;;;2.30;99.90;;;;;;4177061;28;19924;-51
2022/02/24 00:09:49;;;;;;;;;;;2.30;99.90;;;;;;4178645;28;20305;-51
2022/02/24 00:11:51;;;;;;;;;;;2.30;99.90;;;;;;4178485;28;20462;-51
2022/02/24 00:13:53;;;;;;;;;;;2.30;99.90;;;;;;4177390;28;19936;-51
2022/02/24 00:15:55;;;;;;;;;;;2.20;99.90;;;;;;4178778;28;20516;-51
2022/02/24 00:17:57;;;;;;;;;;;2.20;99.90;;;;;;4174965;28;19928;-51
2022/02/24 00:19:59;;;;;;;;;;;2.20;99.90;;;;;;4177519;28;19932;-51
2022/02/24 00:22:01;;;;;;;;;;;2.10;99.90;;;;;;4178390;28;20633;-51
2022/02/24 00:24:03;;;;;;;;;;;2.10;99.90;;;;;;4177218;28;19933;-51
2022/02/24 00:26:05;;;;;;;;;;;2.10;99.90;;;;;;4178550;28;19931;-51
2022/02/24 00:28:07;;;;;;;;;;;2.00;99.90;;;;;;4176425;28;19932;-51
2022/02/24 00:30:09;;;;;;;;;;;1.80;99.90;;;;;;4176115;28;19925;-51
2022/02/24 00:32:11;;;;;;;;;;;1.60;99.90;;;;;;4179107;28;19925;-51
2022/02/24 00:34:14;;;;;;;;;;;1.40;99.90;;;;;;4174843;28;19925;-50
2022/02/24 00:36:16;;;;;;;;;;;1.30;99.90;;;;;;4175534;28;19937;-49
2022/02/24 00:38:18;;;;;;;;;;;1.10;99.90;;;;;;4178818;28;20323;-51
2022/02/24 00:40:20;;;;;;;;;;;1.00;99.90;;;;;;4174706;28;20321;-51
2022/02/24 00:42:22;;;;;;;;;;;1.10;99.90;;;;;;4175616;28;19931;-51
2022/02/24 00:44:23;;;;;;;;;;;1.40;99.90;;;;;;4178949;28;19994;-51
2022/02/24 00:46:25;;;;;;;;;;;1.50;99.90;;;;;;4176086;28;19931;-51
2022/02/24 00:48:27;;;;;;;;;;;1.50;99.90;;;;;;4176804;28;20281;-50
2022/02/24 00:50:29;;;;;;;;;;;1.40;99.90;;;;;;4163545;28;19929;-49
2022/02/24 00:52:31;;;;;;;;;;;1.30;99.90;;;;;;4174193;28;19925;-51
2022/02/24 00:54:33;;;;;;;;;;;1.30;99.90;;;;;;4176358;28;19929;-51
2022/02/24 00:56:35;;;;;;;;;;;1.30;99.90;;;;;;4176970;28;20312;-48
2022/02/24 00:58:38;;;;;;;;;;;1.20;99.90;;;;;;4175315;28;19929;-50
2022/02/24 01:00:39;;;;;;;;;;;1.30;99.90;;;;;;4175936;28;19925;-49
2022/02/24 01:02:41;;;;;;;;;;;1.40;99.90;;;;;;4167866;28;19929;-47
2022/02/24 01:04:44;;;;;;;;;;;1.40;99.90;;;;;;4172468;28;20384;-48
2022/02/24 01:06:46;;;;;;;;;;;1.50;99.90;;;;;;4176793;28;20016;-51
2022/02/24 01:08:48;;;;;;;;;;;1.50;99.90;;;;;;4169868;28;19991;-49
2022/02/24 01:10:52;;;;;;;;;;;1.40;99.90;;;;;;4173412;28;20470;-50
2022/02/24 01:12:54;;;;;;;;;;;1.40;99.90;;;;;;4170864;28;20285;-51
2022/02/24 01:14:58;;;;;;;;;;;1.40;99.90;;;;;;4171566;28;19961;-51
2022/02/24 01:17:00;;;;;;;;;;;1.30;99.90;;;;;;4171148;28;19925;-51
2022/02/24 01:19:02;;;;;;;;;;;1.40;99.90;;;;;;4174240;28;19940;-50
2022/02/24 01:21:04;;;;;;;;;;;1.50;99.90;;;;;;4175467;28;19933;-50
2022/02/24 01:23:06;;;;;;;;;;;1.50;99.90;;;;;;4171102;28;19940;-50
2022/02/24 01:25:08;;;;;;;;;;;1.60;99.90;;;;;;4167708;28;19959;-49
2022/02/24 01:27:10;;;;;;;;;;;1.60;99.90;;;;;;4177430;28;19928;-50
2022/02/24 01:29:12;;;;;;;;;;;1.40;99.90;;;;;;4173441;28;19929;-51
2022/02/24 01:31:14;;;;;;;;;;;1.50;99.90;;;;;;4170059;28;20047;-48
2022/02/24 01:33:16;;;;;;;;;;;1.40;99.90;;;;;;4175536;28;19944;-48
2022/02/24 01:35:17;;;;;;;;;;;1.40;99.90;;;;;;4176943;28;19951;-51
2022/02/24 01:37:19;;;;;;;;;;;1.30;99.90;;;;;;4171376;28;20015;-51
2022/02/24 01:39:21;;;;;;;;;;;1.10;99.90;;;;;;4174640;28;19940;-51
2022/02/24 01:41:23;;;;;;;;;;;1.00;99.90;;;;;;4175031;28;20371;-51
2022/02/24 01:43:25;;;;;;;;;;;0.90;99.90;;;;;;4165791;28;20024;-50
2022/02/24 01:45:27;;;;;;;;;;;0.90;99.90;;;;;;4175816;28;19928;-50
2022/02/24 01:47:29;;;;;;;;;;;1.00;99.90;;;;;;4175575;28;20027;-50
2022/02/24 01:49:31;;;;;;;;;;;1.10;99.90;;;;;;4177390;28;19928;-49
2022/02/24 01:51:33;;;;;;;;;;;1.20;99.90;;;;;;4176035;28;19975;-48
2022/02/24 01:53:35;;;;;;;;;;;1.20;99.90;;;;;;4175465;28;19968;-48
2022/02/24 01:55:37;;;;;;;;;;;1.10;99.90;;;;;;4176412;28;19964;-48
2022/02/24 01:57:39;;;;;;;;;;;1.00;99.90;;;;;;4172072;28;20376;-50
2022/02/24 01:59:41;;;;;;;;;;;1.10;99.90;;;;;;4175755;28;19928;-49
2022/02/24 02:01:43;;;;;;;;;;;1.10;99.90;;;;;;4177904;28;20492;-49
2022/02/24 02:03:45;;;;;;;;;;;1.10;99.90;;;;;;4173996;28;20023;-50
2022/02/24 02:05:50;;;;;;;;;;;0.90;99.90;;;;;;4173596;28;19929;-52
2022/02/24 02:07:52;;;;;;;;;;;0.80;99.90;;;;;;4177574;28;20043;-50
2022/02/24 02:09:54;;;;;;;;;;;0.60;99.90;;;;;;4174866;28;19928;-50
2022/02/24 02:11:56;;;;;;;;;;;0.50;99.90;;;;;;4176806;28;19957;-50
2022/02/24 02:13:58;;;;;;;;;;;0.40;99.90;;;;;;4191119;28;19929;-50
2022/02/24 02:16:00;;;;;;;;;;;0.60;99.90;;;;;;4175683;28;19929;-49
2022/02/24 02:18:02;;;;;;;;;;;0.60;99.90;;;;;;4174358;28;20054;-51
2022/02/24 02:20:04;;;;;;;;;;;0.60;99.90;;;;;;4175865;28;19929;-48
2022/02/24 02:22:06;;;;;;;;;;;0.60;99.90;;;;;;4169385;28;20403;-51
2022/02/24 02:24:11;;;;;;;;;;;0.50;99.90;;;;;;4175767;28;19940;-51
2022/02/24 02:26:13;;;;;;;;;;;0.60;99.90;;;;;;4175520;28;19925;-50
2022/02/24 02:28:15;;;;;;;;;;;0.60;99.90;;;;;;4173996;28;20400;-51
2022/02/24 02:30:17;;;;;;;;;;;0.50;99.90;;;;;;4175593;28;19931;-51
2022/02/24 02:32:19;;;;;;;;;;;0.40;99.90;;;;;;4175711;28;19924;-50
2022/02/24 02:34:21;;;;;;;;;;;0.40;99.90;;;;;;4174406;28;19971;-49
2022/02/24 02:36:23;;;;;;;;;;;0.50;99.90;;;;;;4176667;28;19973;-51
2022/02/24 02:38:25;;;;;;;;;;;0.60;99.90;;;;;;4176007;28;19979;-51
2022/02/24 02:40:27;;;;;;;;;;;0.50;99.90;;;;;;4173041;28;20289;-51
2022/02/24 02:42:29;;;;;;;;;;;0.50;99.90;;;;;;4161801;28;19925;-51
2022/02/24 02:44:31;;;;;;;;;;;0.50;99.90;;;;;;4174260;28;19947;-51
2022/02/24 02:46:33;;;;;;;;;;;0.50;99.90;;;;;;4174064;28;19929;-49
2022/02/24 02:48:35;;;;;;;;;;;0.50;99.90;;;;;;4160990;28;20575;-48
2022/02/24 02:50:37;;;;;;;;;;;0.40;99.90;;;;;;4169243;28;19925;-51
2022/02/24 02:52:39;;;;;;;;;;;0.40;99.90;;;;;;4166927;28;19956;-50
2022/02/24 02:54:41;;;;;;;;;;;0.40;99.90;;;;;;4163559;28;19925;-50
2022/02/24 02:56:43;;;;;;;;;;;0.30;99.90;;;;;;4174550;28;20016;-50
2022/02/24 02:58:45;;;;;;;;;;;0.30;99.90;;;;;;4175304;28;20360;-51
2022/02/24 03:00:47;;;;;;;;;;;0.20;99.90;;;;;;4177097;28;19925;-51
2022/02/24 03:02:49;;;;;;;;;;;0.10;99.90;;;;;;4173353;28;20434;-50
2022/02/24 03:04:52;;;;;;;;;;;0.00;99.90;;;;;;4165612;28;19976;-51
2022/02/24 03:06:54;;;;;;;;;;;-0.10;99.90;;;;;;4170245;28;19958;-51
2022/02/24 03:08:56;;;;;;;;;;;-0.20;99.90;;;;;;4175033;28;19939;-51
2022/02/24 03:10:58;;;;;;;;;;;-0.30;99.90;;;;;;4175325;28;20625;-51
2022/02/24 03:13:00;;;;;;;;;;;-0.40;99.90;;;;;;4161388;28;19929;-50
2022/02/24 03:15:03;;;;;;;;;;;-0.50;99.90;;;;;;4171024;28;19960;-50
2022/02/24 03:17:05;;;;;;;;;;;-0.50;99.90;;;;;;4167869;28;19932;-49
2022/02/24 03:19:09;;;;;;;;;;;-0.50;99.90;;;;;;4174062;28;19928;-52
2022/02/24 03:21:11;;;;;;;;;;;-0.50;99.90;;;;;;4174961;28;19928;-51
2022/02/24 03:23:13;;;;;;;;;;;-0.50;99.90;;;;;;4170885;28;19968;-49
2022/02/24 03:25:15;;;;;;;;;;;-0.40;99.90;;;;;;4178603;28;19929;-51
2022/02/24 03:27:17;;;;;;;;;;;-0.40;99.90;;;;;;4176295;28;19972;-51
2022/02/24 03:29:19;;;;;;;;;;;-0.40;99.90;;;;;;4171242;28;19932;-49
2022/02/24 03:31:21;;;;;;;;;;;-0.40;99.90;;;;;;4179143;28;19964;-50
2022/02/24 03:33:22;;;;;;;;;;;-0.40;99.90;;;;;;4171938;28;19991;-51
2022/02/24 03:35:24;;;;;;;;;;;-0.30;99.90;;;;;;4178249;28;20032;-49
2022/02/24 03:37:26;;;;;;;;;;;-0.30;99.90;;;;;;4177796;28;19931;-50
2022/02/24 03:39:31;;;;;;;;;;;-0.40;99.90;;;;;;4177797;28;19932;-51
2022/02/24 03:41:33;;;;;;;;;;;-0.40;99.90;;;;;;4177527;28;20012;-51
2022/02/24 03:43:35;;;;;;;;;;;-0.40;99.90;;;;;;4178477;28;19940;-50
2022/02/24 03:45:37;;;;;;;;;;;-0.40;99.90;;;;;;4175403;28;19972;-51
2022/02/24 03:47:39;;;;;;;;;;;-0.40;99.90;;;;;;4162291;28;19929;-49
2022/02/24 03:49:40;;;;;;;;;;;-0.40;99.90;;;;;;4177415;28;19990;-50
2022/02/24 03:51:42;;;;;;;;;;;-0.40;99.90;;;;;;4176141;28;19925;-49
2022/02/24 03:53:44;;;;;;;;;;;-0.40;99.90;;;;;;4179363;28;19968;-50
2022/02/24 03:55:46;;;;;;;;;;;-0.50;99.90;;;;;;4177575;28;19924;-49
2022/02/24 03:57:49;;;;;;;;;;;-0.50;99.90;;;;;;4176675;28;20051;-49
2022/02/24 03:59:51;;;;;;;;;;;-0.50;99.90;;;;;;4179715;28;20382;-51
2022/02/24 04:01:53;;;;;;;;;;;-0.50;99.90;;;;;;4177146;28;19965;-51
2022/02/24 04:03:55;;;;;;;;;;;-0.40;99.90;;;;;;4177885;28;19931;-49
2022/02/24 04:05:57;;;;;;;;;;;-0.30;99.90;;;;;;4179529;28;19932;-51
2022/02/24 04:07:59;;;;;;;;;;;-0.20;99.90;;;;;;4176655;28;20507;-50
2022/02/24 04:10:01;;;;;;;;;;;-0.30;99.90;;;;;;4177151;28;19925;-49
2022/02/24 04:12:04;;;;;;;;;;;-0.20;99.90;;;;;;4177857;28;20455;-50
2022/02/24 04:14:06;;;;;;;;;;;-0.10;99.90;;;;;;4173024;28;19929;-50
2022/02/24 04:16:08;;;;;;;;;;;-0.10;99.90;;;;;;4174424;28;19931;-50
2022/02/24 04:18:10;;;;;;;;;;;-0.30;99.90;;;;;;4177780;28;20499;-49
2022/02/24 04:20:12;;;;;;;;;;;-0.60;99.90;;;;;;4175562;28;19925;-51
2022/02/24 04:22:14;;;;;;;;;;;-0.70;99.90;;;;;;4176608;28;19936;-50
2022/02/24 04:24:16;;;;;;;;;;;-0.80;99.90;;;;;;4178384;28;19925;-49
2022/02/24 04:26:17;;;;;;;;;;;-0.70;99.90;;;;;;4176429;28;21044;-50
2022/02/24 04:28:19;;;;;;;;;;;-0.70;99.90;;;;;;4176467;28;19975;-48
2022/02/24 04:30:21;;;;;;;;;;;-0.80;99.90;;;;;;4164395;28;19928;-48
2022/02/24 04:32:23;;;;;;;;;;;-0.60;99.90;;;;;;4167917;28;19929;-50
2022/02/24 04:34:25;;;;;;;;;;;-0.50;99.90;;;;;;4164503;28;20400;-49
2022/02/24 04:36:27;;;;;;;;;;;-0.40;99.90;;;;;;4166798;28;19929;-49
2022/02/24 04:38:29;;;;;;;;;;;-0.40;99.90;;;;;;4169251;28;19925;-48
2022/02/24 04:40:31;;;;;;;;;;;-0.50;99.90;;;;;;4166915;28;19932;-49
2022/02/24 04:42:33;;;;;;;;;;;-0.30;99.90;;;;;;4176955;28;19925;-50
2022/02/24 04:44:38;;;;;;;;;;;-0.50;99.90;;;;;;4173563;28;19952;-51
2022/02/24 04:46:40;;;;;;;;;;;-0.60;99.90;;;;;;4162698;28;20011;-51
2022/02/24 04:48:43;;;;;;;;;;;-0.70;99.90;;;;;;4171215;28;19925;-52
2022/02/24 04:50:45;;;;;;;;;;;-0.70;99.90;;;;;;4169127;28;20641;-51
2022/02/24 04:52:49;;;;;;;;;;;-0.70;99.90;;;;;;4164969;28;19933;-50
2022/02/24 04:54:51;;;;;;;;;;;-0.80;99.90;;;;;;4171688;28;19971;-52
2022/02/24 04:56:54;;;;;;;;;;;-1.00;99.90;;;;;;4168315;28;19994;-50
2022/02/24 04:58:56;;;;;;;;;;;-1.20;99.90;;;;;;4163055;28;19926;-50
2022/02/24 05:00:58;;;;;;;;;;;-1.30;99.90;;;;;;4176905;28;20043;-51
2022/02/24 05:03:00;;;;;;;;;;;-1.40;99.90;;;;;;4175304;28;19952;-51
2022/02/24 05:05:03;;;;;;;;;;;-1.40;99.90;;;;;;4168320;28;19933;-49
2022/02/24 05:07:05;;;;;;;;;;;-1.20;99.90;;;;;;4168823;28;19955;-51
2022/02/24 05:09:07;;;;;;;;;;;-1.10;99.90;;;;;;4167956;28;19932;-51
2022/02/24 05:11:09;;;;;;;;;;;-1.20;99.90;;;;;;4169746;28;19936;-51
2022/02/24 05:13:10;;;;;;;;;;;-1.40;99.90;;;;;;4174248;28;19925;-51
2022/02/24 05:15:12;;;;;;;;;;;-1.50;99.90;;;;;;4174870;28;20308;-52
2022/02/24 05:17:15;;;;;;;;;;;-1.50;99.90;;;;;;4160637;28;19929;-49
2022/02/24 05:19:17;;;;;;;;;;;-1.40;99.90;;;;;;4174435;28;19986;-48
2022/02/24 05:21:19;;;;;;;;;;;-1.20;99.90;;;;;;4166463;28;19982;-49
2022/02/24 05:23:21;;;;;;;;;;;-1.10;99.90;;;;;;4177989;28;19928;-50
2022/02/24 05:25:23;;;;;;;;;;;-1.10;99.90;;;;;;4175403;28;19975;-50
2022/02/24 05:27:25;;;;;;;;;;;-1.10;99.90;;;;;;4174782;28;20317;-50
2022/02/24 05:29:27;;;;;;;;;;;-1.10;99.90;;;;;;4178268;28;19929;-50
2022/02/24 05:31:29;;;;;;;;;;;-1.00;99.90;;;;;;4176113;28;19924;-50
2022/02/24 05:33:31;;;;;;;;;;;-0.70;99.90;;;;;;4176956;28;20412;-51
2022/02/24 05:35:33;;;;;;;;;;;-0.60;99.90;;;;;;4177316;28;19936;-51
2022/02/24 05:37:35;;;;;;;;;;;-0.60;99.90;;;;;;4173449;28;19933;-48
2022/02/24 05:39:37;;;;;;;;;;;-0.70;99.90;;;;;;4175191;28;19975;-48
2022/02/24 05:41:39;;;;;;;;;;;-0.60;99.90;;;;;;4175804;28;19924;-50
2022/02/24 05:43:41;;;;;;;;;;;-0.70;99.90;;;;;;4175349;28;19947;-51
2022/02/24 05:45:43;;;;;;;;;;;-0.80;99.90;;;;;;4174904;28;20462;-48
2022/02/24 05:47:45;;;;;;;;;;;-1.00;99.90;;;;;;4163791;28;19929;-50
2022/02/24 05:49:47;;;;;;;;;;;-1.20;99.90;;;;;;4171601;28;20560;-51
2022/02/24 05:51:49;;;;;;;;;;;-1.30;99.90;;;;;;4175585;28;19933;-49
2022/02/24 05:53:51;;;;;;;;;;;-1.30;99.90;;;;;;4176466;28;19937;-50
2022/02/24 05:55:52;;;;;;;;;;;-1.40;99.90;;;;;;4174709;28;19933;-50
2022/02/24 05:57:54;;;;;;;;;;;-1.40;99.90;;;;;;4177007;28;19955;-51
2022/02/24 05:59:56;;;;;;;;;;;-1.30;99.90;;;;;;4176756;28;19929;-50
2022/02/24 06:01:58;;;;;;;;;;;-1.30;99.90;;;;;;4172411;28;19925;-49
2022/02/24 06:04:00;;;;;;;;;;;-1.30;99.90;;;;;;4177258;28;19935;-51
2022/02/24 06:06:02;;;;;;;;;;;-1.20;99.90;;;;;;4174950;28;19979;-50
2022/02/24 06:08:04;;;;;;;;;;;-1.20;99.90;;;;;;4173693;28;20273;-48
2022/02/24 06:10:06;;;;;;;;;;;-1.20;99.90;;;;;;4177163;28;19964;-48
2022/02/24 06:12:08;;;;;;;;;;;-1.20;99.90;;;;;;4174807;28;20605;-48
2022/02/24 06:14:10;;;;;;;;;;;-1.30;99.90;;;;;;4175465;28;19925;-50
2022/02/24 06:16:12;;;;;;;;;;;-1.30;99.90;;;;;;4176339;28;19928;-48
2022/02/24 06:18:18;;;;;;;;;;;-1.30;99.90;;;;;;4173794;28;20537;-50
2022/02/24 06:20:20;;;;;;;;;;;-1.30;99.90;;;;;;4175440;28;19924;-51
2022/02/24 06:22:22;;;;;;;;;;;-1.30;99.90;;;;;;4177356;28;21072;-50
2022/02/24 06:24:24;;;;;;;;;;;-1.30;99.90;;;;;;4168214;28;20419;-51
2022/02/24 06:26:28;;;;;;;;;;;-1.30;99.90;;;;;;4165284;28;19932;-48
2022/02/24 06:28:30;;;;;;;;;;;-1.20;99.90;;;;;;4176772;28;19929;-48
2022/02/24 06:30:32;;;;;;;;;;;-1.10;99.90;;;;;;4174099;28;20007;-50
2022/02/24 06:32:37;;;;;;;;;;;-1.00;99.90;;;;;;4174687;28;20388;-50
2022/02/24 06:34:43;;;;;;;;;;;-0.90;99.90;;;;;;4176166;28;20379;-50
2022/02/24 06:36:45;;;;;;;;;;;-0.80;99.90;;;;;;4174184;28;19940;-49
2022/02/24 06:38:47;;;;;;;;;;;-0.60;99.90;;;;;;4174148;28;19937;-48
2022/02/24 06:40:49;;;;;;;;;;;-0.50;99.90;;;;;;4174008;28;19928;-50
2022/02/24 06:42:51;;;;;;;;;;;-0.40;99.90;;;;;;4174010;28;19929;-51
2022/02/24 06:44:53;;;;;;;;;;;-0.40;99.90;;;;;;4162979;28;19925;-48
2022/02/24 06:46:55;;;;;;;;;;;-0.40;99.90;;;;;;4166477;28;20016;-50
2022/02/24 06:48:57;;;;;;;;;;;-0.40;99.90;;;;;;4169618;28;19935;-50
2022/02/24 06:51:00;;;;;;;;;;;-0.50;99.90;;;;;;4169030;28;20019;-49
2022/02/24 06:53:07;;;;;;;;;;;-0.60;99.90;;;;;;4171785;28;19956;-52
2022/02/24 06:55:09;;;;;;;;;;;-0.70;99.90;;;;;;4174763;28;19925;-50
2022/02/24 06:57:11;;;;;;;;;;;-0.50;99.90;;;;;;4173723;28;20019;-49
2022/02/24 06:59:13;;;;;;;;;;;-0.40;99.90;;;;;;4179749;28;20584;-51
2022/02/24 07:01:15;;;;;;;;;;;-0.40;99.90;;;;;;4176109;28;19959;-51
2022/02/24 07:03:17;;;;;;;;;;;-0.30;99.90;;;;;;4178428;28;19925;-51
2022/02/24 07:05:20;;;;;;;;;;;-0.10;99.90;;;;;;4172453;28;19925;-50
2022/02/24 07:07:22;;;;;;;;;;;0.00;99.90;;;;;;4174012;28;19929;-49
2022/02/24 07:09:24;;;;;;;;;;;0.00;99.90;;;;;;4171199;28;19991;-51
2022/02/24 07:11:26;;;;;;;;;;;0.10;99.90;;;;;;4178901;28;19975;-49
2022/02/24 07:13:28;;;;;;;;;;;0.10;99.90;;;;;;4194603;28;20380;-51
2022/02/24 07:15:50;;;;;;;;;;;0.10;99.90;;;;;;4176864;28;20036;-51
2022/02/24 07:17:52;;;;;;;;;;;0.10;99.90;;;;;;4178982;28;19929;-51
2022/02/24 07:19:54;;;;;;;;;;;0.00;99.90;;;;;;4176858;28;19979;-51
2022/02/24 07:21:56;;;;;;;;;;;0.00;99.90;;;;;;4175034;28;19966;-51
2022/02/24 07:23:58;;;;;;;;;;;0.00;99.90;;;;;;4179035;28;19990;-50
2022/02/24 07:26:00;;;;;;;;;;;0.20;99.90;;;;;;4174275;28;19924;-51
2022/02/24 07:28:03;;;;;;;;;;;0.20;99.90;;;;;;4174921;28;19925;-49
2022/02/24 07:30:12;;;;;;;;;;;0.30;99.90;;;;;;4179115;28;19929;-50
2022/02/24 07:32:14;;;;;;;;;;;0.40;99.90;;;;;;4176595;28;19939;-50
2022/02/24 07:34:16;;;;;;;;;;;0.50;99.90;;;;;;4178073;28;19924;-49
2022/02/24 07:36:18;;;;;;;;;;;0.60;99.90;;;;;;4178009;28;20403;-50
2022/02/24 07:38:20;;;;;;;;;;;0.70;99.90;;;;;;4175468;28;19925;-51
2022/02/24 07:40:22;;;;;;;;;;;0.80;99.90;;;;;;4178086;28;19924;-50
2022/02/24 07:42:24;;;;;;;;;;;1.00;99.90;;;;;;4167328;28;19936;-51
2022/02/24 07:44:26;;;;;;;;;;;1.20;99.90;;;;;;4171334;28;19968;-52
2022/02/24 07:46:28;;;;;;;;;;;1.30;99.90;;;;;;4179436;28;19929;-49
2022/02/24 07:48:30;;;;;;;;;;;1.40;99.90;;;;;;4178003;28;19925;-52
2022/02/24 07:50:32;;;;;;;;;;;1.50;99.90;;;;;;4177116;28;20370;-51
2022/02/24 07:52:34;;;;;;;;;;;1.60;99.90;;;;;;4179213;28;19964;-51
2022/02/24 07:54:36;;;;;;;;;;;1.70;99.90;;;;;;4176079;28;20003;-51
2022/02/24 07:56:38;;;;;;;;;;;1.80;99.90;;;;;;4177475;28;19971;-51
2022/02/24 07:58:40;;;;;;;;;;;1.90;99.90;;;;;;4179444;28;19978;-51
2022/02/24 08:00:42;;;;;;;;;;;2.10;99.90;;;;;;4176427;28;20027;-51
2022/02/24 08:02:44;;;;;;;;;;;2.30;99.90;;;;;;4174905;28;20055;-51
2022/02/24 08:04:46;;;;;;;;;;;2.40;99.90;;;;;;4162948;28;19959;-52
2022/02/24 08:06:48;;;;;;;;;;;2.40;99.90;;;;;;4174901;28;19971;-50
2022/02/24 08:08:52;;;;;;;;;;;2.40;99.90;;;;;;4175919;28;20389;-51
2022/02/24 08:10:54;;;;;;;;;;;2.40;99.90;;;;;;4179365;28;19963;-51
2022/02/24 08:12:56;;;;;;;;;;;2.40;99.90;;;;;;4177025;28;19932;-52
2022/02/24 08:14:58;;;;;;;;;;;2.60;99.90;;;;;;4176272;28;19952;-52
2022/02/24 08:17:00;;;;;;;;;;;2.80;99.90;;;;;;4177436;28;19956;-50
2022/02/24 08:19:02;;;;;;;;;;;3.10;99.90;;;;;;4176240;28;20006;-52
2022/02/24 08:21:04;;;;;;;;;;;3.20;99.90;;;;;;4177076;28;19971;-50
2022/02/24 08:23:06;;;;;;;;;;;3.30;99.90;;;;;;4166262;28;20443;-52
2022/02/24 08:25:09;;;;;;;;;;;3.30;99.90;;;;;;4171062;28;19934;-51
2022/02/24 08:27:11;;;;;;;;;;;3.30;99.90;;;;;;4166501;28;19925;-49
2022/02/24 08:29:13;;;;;;;;;;;3.30;99.90;;;;;;4178664;28;19964;-51
2022/02/24 08:31:15;;;;;;;;;;;3.30;99.90;;;;;;4175583;28;20415;-52
2022/02/24 08:33:17;;;;;;;;;;;3.60;99.90;;;;;;4176488;28;19972;-49
2022/02/24 08:35:19;;;;;;;;;;;3.80;99.90;;;;;;4170361;28;19929;-51
2022/02/24 08:37:22;;;;;;;;;;;3.90;99.90;;;;;;4173186;28;19963;-52
2022/02/24 08:39:23;;;;;;;;;;;4.00;99.90;;;;;;4177096;28;20393;-52
2022/02/24 08:41:25;;;;;;;;;;;4.20;99.90;;;;;;4171740;28;19972;-51
2022/02/24 08:43:27;;;;;;;;;;;4.30;99.90;;;;;;4171412;28;19928;-51
2022/02/24 08:45:30;;;;;;;;;;;4.50;99.90;;;;;;4167233;28;19936;-52
2022/02/24 08:47:32;;;;;;;;;;;4.70;99.90;;;;;;4175822;28;19971;-52
2022/02/24 08:49:34;;;;;;;;;;;4.80;99.90;;;;;;4175444;28;19979;-53
2022/02/24 08:51:35;;;;;;;;;;;4.90;99.90;;;;;;4171569;28;19932;-52
2022/02/24 08:53:37;;;;;;;;;;;5.10;99.90;;;;;;4176712;28;19964;-51
2022/02/24 08:55:39;;;;;;;;;;;5.30;99.90;;;;;;4170410;28;20369;-51
2022/02/24 08:57:41;;;;;;;;;;;5.50;99.90;;;;;;4170949;28;20370;-53
2022/02/24 08:59:43;;;;;;;;;;;5.40;99.90;;;;;;4175184;28;19979;-52
2022/02/24 09:01:46;;;;;;;;;;;5.50;99.90;;;;;;4175546;28;19979;-51
2022/02/24 09:03:48;;;;;;;;;;;5.40;99.90;;;;;;4178486;28;19925;-52
2022/02/24 09:05:50;;;;;;;;;;;5.50;99.90;;;;;;4175599;28;19928;-53
2022/02/24 09:07:52;;;;;;;;;;;5.70;99.90;;;;;;4176067;28;19960;-52
2022/02/24 09:10:02;;;;;;;;;;;5.80;99.90;;;;;;4166735;28;20015;-52
2022/02/24 09:12:04;;;;;;;;;;;5.80;99.90;;;;;;4176766;28;20027;-51
2022/02/24 09:14:06;;;;;;;;;;;6.00;99.90;;;;;;4174747;28;20470;-53
2022/02/24 09:16:09;;;;;;;;;;;6.20;99.90;;;;;;4171079;28;20340;-52
2022/02/24 09:18:11;;;;;;;;;;;6.40;99.90;;;;;;4170163;28;19924;-52
2022/02/24 09:20:13;;;;;;;;;;;6.50;99.90;;;;;;4173582;28;19968;-52
2022/02/24 09:22:15;;;;;;;;;;;6.70;99.90;;;;;;4174491;28;20480;-50
2022/02/24 09:24:18;;;;;;;;;;;6.80;99.90;;;;;;4172288;28;19925;-52
2022/02/24 09:26:20;;;;;;;;;;;7.10;99.90;;;;;;4166013;28;19986;-52
2022/02/24 09:28:22;;;;;;;;;;;7.20;99.90;;;;;;4161891;28;19932;-52
2022/02/24 09:30:24;;;;;;;;;;;7.30;99.90;;;;;;4167556;28;19932;-53
2022/02/24 09:32:29;;;;;;;;;;;7.50;99.90;;;;;;4175961;28;20388;-51
2022/02/24 09:34:31;;;;;;;;;;;7.70;99.90;;;;;;4177895;28;19931;-51
2022/02/24 09:36:34;;;;;;;;;;;7.80;99.90;;;;;;4174352;28;19976;-52
2022/02/24 09:38:36;;;;;;;;;;;8.00;99.90;;;;;;4175318;28;20479;-52
2022/02/24 09:40:37;;;;;;;;;;;8.20;99.90;;;;;;4169843;28;20023;-51
2022/02/24 09:43:01;;;;;;;;;;;8.40;99.90;;;;;;4175822;28;19925;-52
2022/02/24 09:45:04;;;;;;;;;;;8.60;99.90;;;;;;4176406;28;20024;-51
2022/02/24 09:47:07;;;;;;;;;;;8.70;99.90;;;;;;4176410;28;19932;-52
2022/02/24 09:49:09;;;;;;;;;;;8.80;99.90;;;;;;4175675;28;20483;-52
2022/02/24 09:51:14;;;;;;;;;;;8.90;99.90;;;;;;4174850;28;20397;-51
2022/02/24 09:53:18;;;;;;;;;;;9.10;99.90;;;;;;4176559;28;19925;-52
2022/02/24 09:55:20;;;;;;;;;;;9.30;99.90;;;;;;4175523;28;19955;-52
2022/02/24 09:57:22;;;;;;;;;;;9.50;99.90;;;;;;4173665;28;20389;-52
2022/02/24 09:59:24;;;;;;;;;;;9.80;99.90;;;;;;4177713;28;19986;-51
2022/02/24 10:01:26;;;;;;;;;;;10.00;99.90;;;;;;4174226;28;19939;-51
2022/02/24 10:03:37;;;;;;;;;;;10.10;99.90;;;;;;4176149;28;19952;-52
2022/02/24 10:05:45;;;;;;;;;;;10.10;99.90;;;;;;4162127;28;20019;-51
2022/02/24 10:07:49;;;;;;;;;;;10.20;99.90;;;;;;4173864;28;20031;-53
2022/02/24 10:09:51;;;;;;;;;;;10.60;99.90;;;;;;4174542;28;20027;-52
2022/02/24 10:12:02;;;;;;;;;;;10.70;99.90;;;;;;4177091;28;19956;-52
2022/02/24 10:14:08;;;;;;;;;;;10.80;99.90;;;;;;4175328;28;20357;-52
2022/02/24 10:16:10;;;;;;;;;;;11.00;99.90;;;;;;4174489;28;19979;-53
2022/02/24 10:18:13;;;;;;;;;;;11.50;99.90;;;;;;4168659;28;19925;-53
2022/02/24 10:20:15;;;;;;;;;;;11.60;99.90;;;;;;4169389;28;19991;-52
2022/02/24 10:22:20;;;;;;;;;;;11.70;99.70;;;;;;4165960;28;19933;-53
2022/02/24 10:24:25;;;;;;;;;;;11.70;98.80;;;;;;4163718;28;19932;-53
2022/02/24 10:26:28;;;;;;;;;;;11.90;99.90;;;;;;4173346;28;20416;-53
2022/02/24 10:28:31;;;;;;;;;;;12.20;99.60;;;;;;4173055;28;19936;-53
2022/02/24 10:30:33;;;;;;;;;;;12.20;97.20;;;;;;4165403;28;19929;-53
2022/02/24 10:32:35;;;;;;;;;;;12.40;96.40;;;;;;4169326;28;19972;-54
2022/02/24 10:34:37;;;;;;;;;;;12.50;96.20;;;;;;4165547;28;20313;-53
2022/02/24 10:36:39;;;;;;;;;;;12.60;96.50;;;;;;4176882;28;20348;-53
2022/02/24 10:38:56;;;;;;;;;;;13.00;95.30;;;;;;4175011;28;20039;-53
2022/02/24 10:40:58;;;;;;;;;;;13.30;94.50;;;;;;4168407;28;19986;-53
2022/02/24 10:43:10;;;;;;;;;;;13.30;93.70;;;;;;4176921;28;20243;-54
2022/02/24 10:45:16;;;;;;;;;;;13.60;92.90;;;;;;4173734;28;19955;-53
2022/02/24 10:47:18;;;;;;;;;;;13.70;90.10;;;;;;4166339;28;19935;-52
2022/02/24 10:49:28;;;;;;;;;;;13.90;89.20;;;;;;4174272;28;19935;-53
2022/02/24 10:51:31;;;;;;;;;;;13.80;86.30;;;;;;4175477;28;19925;-53
2022/02/24 10:53:34;;;;;;;;;;;13.90;88.30;;;;;;4173872;28;19928;-53
2022/02/24 10:56:08;;;;;;;;;;;14.00;87.60;;;;;;4161463;28;19967;-53
2022/02/24 10:58:13;;;;;;;;;;;14.10;86.90;;;;;;4148106;28;20421;-53
2022/02/24 11:00:20;;;;;;;;;;;14.10;84.20;;;;;;4156920;28;20522;-53
2022/02/24 11:02:23;;;;;;;;;;;14.10;85.60;;;;;;4157388;28;19925;-53
2022/02/24 11:04:25;;;;;;;;;;;14.20;88.20;;;;;;4155310;28;19950;-53
2022/02/24 11:06:28;;;;;;;;;;;14.20;84.80;;;;;;4157661;28;20407;-53
2022/02/24 11:08:31;;;;;;;;;;;14.40;84.10;;;;;;4156361;28;19932;-54
2022/02/24 11:10:35;;;;;;;;;;;14.60;86.20;;;;;;4155193;28;19936;-53
2022/02/24 11:12:37;;;;;;;;;;;14.40;83.40;;;;;;4153867;28;20108;-53
2022/02/24 11:14:40;;;;;;;;;;;14.30;81.90;;;;;;4153524;28;19987;-54
2022/02/24 11:16:42;;;;;;;;;;;14.40;82.30;;;;;;4149048;28;19933;-54
2022/02/24 11:18:44;;;;;;;;;;;14.20;83.30;;;;;;4155848;28;19925;-53
2022/02/24 11:20:47;;;;;;;;;;;14.30;82.70;;;;;;4155759;28;19941;-53
2022/02/24 11:22:49;;;;;;;;;;;14.10;81.40;;;;;;4155770;28;20278;-53
2022/02/24 11:24:53;;;;;;;;;;;14.20;81.60;;;;;;4156223;28;19932;-53
2022/02/24 11:27:04;;;;;;;;;;;14.40;81.30;;;;;;4141906;28;19945;-52
2022/02/24 11:29:24;;;;;;;;;;;14.70;82.70;;;;;;4155225;28;20305;-53
2022/02/24 11:31:35;;;;;;;;;;;14.70;81.90;;;;;;4154402;28;19932;-52
2022/02/24 11:33:37;;;;;;;;;;;14.50;80.90;;;;;;4160710;28;19937;-53
2022/02/24 11:35:39;;;;;;;;;;;14.40;79.60;;;;;;4168137;28;19925;-53
2022/02/24 11:37:42;;;;;;;;;;;14.30;80.20;;;;;;4174253;28;19978;-51
2022/02/24 11:39:45;;;;;;;;;;;14.60;80.20;;;;;;4178229;28;19925;-52
2022/02/24 11:41:53;;;;;;;;;;;14.70;81.60;;;;;;4166398;28;19933;-53
2022/02/24 11:43:56;;;;;;;;;;;14.90;82.30;;;;;;4171170;28;19929;-53
2022/02/24 11:46:03;;;;;;;;;;;14.60;78.20;;;;;;4163284;28;20349;-53
2022/02/24 11:48:07;;;;;;;;;;;14.70;77.70;;;;;;4165690;28;19940;-53
2022/02/24 11:50:09;;;;;;;;;;;14.90;78.60;;;;;;4168886;28;19971;-53
2022/02/24 11:52:21;;;;;;;;;;;15.20;80.10;;;;;;4176368;28;19935;-53
2022/02/24 11:54:36;;;;;;;;;;;15.00;77.40;;;;;;4176177;28;19929;-54
2022/02/24 11:56:38;;;;;;;;;;;15.00;76.40;;;;;;4176004;28;20007;-53
2022/02/24 11:58:49;;;;;;;;;;;15.40;77.40;;;;;;4178360;28;19965;-53
2022/02/24 12:01:09;;;;;;;;;;;15.40;76.10;;;;;;4178767;28;19936;-54